createdAt,value
2022-10-01T00:01:15.018Z,7.28
2022-10-01T00:03:41.783Z,7.15
2022-10-01T00:06:13.949Z,7.22
2022-10-01T00:08:43.357Z,7.28
2022-10-01T00:11:15.756Z,7.75
2022-10-01T00:13:44.203Z,6.85
2022-10-01T00:16:13.489Z,6.95
2022-10-01T00:18:41.321Z,7.82
2022-10-01T00:21:09.519Z,6.80
2022-10-01T00:23:36.708Z,6.88
2022-10-01T00:26:21.103Z,7.65
2022-10-01T00:28:48.720Z,6.82
2022-10-01T00:31:15.809Z,7.85
2022-10-01T00:33:42.651Z,5.88
2022-10-01T00:36:10.319Z,7.07
2022-10-01T00:38:37.778Z,7.93
2022-10-01T00:41:04.732Z,7.22
2022-10-01T00:43:34.233Z,7.97
2022-10-01T00:46:10.762Z,7.28
2022-10-01T00:48:44.388Z,7.25
2022-10-01T00:51:11.570Z,6.90
2022-10-01T00:53:38.370Z,6.32
2022-10-01T00:56:05.211Z,6.70
2022-10-01T00:58:32.024Z,4.72
2022-10-01T01:00:58.528Z,6.65
2022-10-01T01:03:25.178Z,7.00
2022-10-01T01:05:51.580Z,6.28
2022-10-01T01:08:18.287Z,6.93
2022-10-01T01:10:54.172Z,7.68
2022-10-01T01:13:50.231Z,6.85
2022-10-01T01:16:25.739Z,6.45
2022-10-01T01:19:01.992Z,5.28
2022-10-01T01:21:31.742Z,6.13
2022-10-01T01:24:27.179Z,6.13
2022-10-01T01:27:09.093Z,5.18
2022-10-01T01:29:39.759Z,6.10
2022-10-01T01:32:14.782Z,5.15
2022-10-01T01:34:43.603Z,5.72
2022-10-01T01:37:12.000Z,5.70
2022-10-01T01:39:41.485Z,5.43
2022-10-01T01:42:13.954Z,5.95
2022-10-01T01:44:42.214Z,5.18
2022-10-01T01:47:10.403Z,5.10
2022-10-01T01:49:38.787Z,3.80
2022-10-01T01:52:05.040Z,5.07
2022-10-01T01:54:32.182Z,5.57
2022-10-01T01:56:59.211Z,4.80
2022-10-01T01:59:26.605Z,5.50
2022-10-01T02:01:53.052Z,4.85
2022-10-01T02:04:25.652Z,5.03
2022-10-01T02:07:04.072Z,4.82
2022-10-01T02:09:35.550Z,5.13
2022-10-01T02:12:10.085Z,4.10
2022-10-01T02:15:01.166Z,3.95
2022-10-01T02:17:54.578Z,4.50
2022-10-01T02:20:30.146Z,4.95
2022-10-01T02:23:00.631Z,4.07
2022-10-01T02:25:31.546Z,3.83
2022-10-01T02:28:03.749Z,3.85
2022-10-01T02:30:31.839Z,3.60
2022-10-01T02:32:59.959Z,3.90
2022-10-01T02:35:28.427Z,3.67
2022-10-01T02:37:57.591Z,3.33
2022-10-01T02:40:28.316Z,3.25
2022-10-01T02:42:57.817Z,3.70
2022-10-01T02:45:26.107Z,3.50
2022-10-01T02:48:02.319Z,3.10
2022-10-01T02:50:35.054Z,3.25
2022-10-01T02:53:07.195Z,3.33
2022-10-01T02:55:36.726Z,3.42
2022-10-01T02:58:03.236Z,2.95
2022-10-01T03:00:30.045Z,3.20
2022-10-01T03:02:56.425Z,3.30
2022-10-01T03:05:23.122Z,3.28
2022-10-01T03:07:49.552Z,3.08
2022-10-01T03:10:16.460Z,3.13
2022-10-01T03:12:46.480Z,3.40
2022-10-01T03:15:14.542Z,4.15
2022-10-01T03:17:41.013Z,4.05
2022-10-01T03:20:08.222Z,4.05
2022-10-01T03:22:34.593Z,3.92
2022-10-01T03:25:00.974Z,3.90
2022-10-01T03:27:27.369Z,4.05
2022-10-01T03:29:53.748Z,4.57
2022-10-01T03:32:20.474Z,3.80
2022-10-01T03:34:47.166Z,3.65
2022-10-01T03:37:13.594Z,4.88
2022-10-01T03:39:40.113Z,4.30
2022-10-01T03:42:07.035Z,4.00
2022-10-01T03:44:33.912Z,5.47
2022-10-01T03:47:00.494Z,5.20
2022-10-01T03:49:27.280Z,4.25
2022-10-01T03:51:54.090Z,5.32
2022-10-01T03:54:21.563Z,5.72
2022-10-01T03:56:48.766Z,6.55
2022-10-01T03:59:15.128Z,6.57
2022-10-01T04:01:41.495Z,5.55
2022-10-01T04:04:07.965Z,5.50
2022-10-01T04:06:34.333Z,6.25
2022-10-01T04:09:00.865Z,6.68
2022-10-01T04:11:27.840Z,7.10
2022-10-01T04:13:54.253Z,6.60
2022-10-01T04:16:20.725Z,7.82
2022-10-01T04:18:47.179Z,7.22
2022-10-01T04:21:15.467Z,6.72
2022-10-01T04:23:42.105Z,8.52
2022-10-01T04:26:08.575Z,6.88
2022-10-01T04:28:35.124Z,8.38
2022-10-01T04:31:20.214Z,7.28
2022-10-01T04:33:46.742Z,5.82
2022-10-01T04:36:13.147Z,7.05
2022-10-01T04:38:39.492Z,7.85
2022-10-01T04:41:06.245Z,6.88
2022-10-01T04:43:33.043Z,7.50
2022-10-01T04:45:59.536Z,8.13
2022-10-01T04:48:25.934Z,7.78
2022-10-01T04:50:52.316Z,5.65
2022-10-01T04:53:18.799Z,7.85
2022-10-01T04:55:46.529Z,7.07
2022-10-01T04:58:13.020Z,8.07
2022-10-01T05:00:39.432Z,8.52
2022-10-01T05:03:05.917Z,8.35
2022-10-01T05:05:34.767Z,9.07
2022-10-01T05:08:01.834Z,8.45
2022-10-01T05:10:28.302Z,7.88
2022-10-01T05:12:54.766Z,8.70
2022-10-01T05:15:21.230Z,8.55
2022-10-01T05:17:47.584Z,8.48
2022-10-01T05:20:19.357Z,8.60
2022-10-01T05:22:46.842Z,8.80
2022-10-01T05:25:13.305Z,8.68
2022-10-01T05:27:41.037Z,9.00
2022-10-01T05:30:09.449Z,8.80
2022-10-01T05:32:36.116Z,8.23
2022-10-01T05:35:03.495Z,8.52
2022-10-01T05:37:29.892Z,9.82
2022-10-01T05:39:56.258Z,9.20
2022-10-01T05:42:22.629Z,8.75
2022-10-01T05:44:49.960Z,9.13
2022-10-01T05:47:20.541Z,9.32
2022-10-01T05:49:46.914Z,9.30
2022-10-01T05:52:15.480Z,9.23
2022-10-01T05:54:41.858Z,8.65
2022-10-01T05:57:08.318Z,9.10
2022-10-01T05:59:35.317Z,10.18
2022-10-01T06:02:02.084Z,8.23
2022-10-01T06:04:28.547Z,9.00
2022-10-01T06:06:56.020Z,8.82
2022-10-01T06:09:22.472Z,9.80
2022-10-01T06:11:49.227Z,8.07
2022-10-01T06:14:16.224Z,8.45
2022-10-01T06:16:42.760Z,8.63
2022-10-01T06:19:09.165Z,8.05
2022-10-01T06:21:36.072Z,8.30
2022-10-01T06:24:02.774Z,9.20
2022-10-01T06:26:29.225Z,8.50
2022-10-01T06:28:56.547Z,8.00
2022-10-01T06:31:23.212Z,8.23
2022-10-01T06:33:49.673Z,8.00
2022-10-01T06:36:16.031Z,7.85
2022-10-01T06:38:42.986Z,7.47
2022-10-01T06:41:09.905Z,8.55
2022-10-01T06:43:36.259Z,7.93
2022-10-01T06:46:03.946Z,7.25
2022-10-01T06:48:31.308Z,7.82
2022-10-01T06:50:58.313Z,7.47
2022-10-01T06:53:25.262Z,7.60
2022-10-01T06:55:51.644Z,6.32
2022-10-01T06:58:20.945Z,6.47
2022-10-01T07:00:48.424Z,6.50
2022-10-01T07:03:17.230Z,7.25
2022-10-01T07:05:43.668Z,5.70
2022-10-01T07:08:10.401Z,5.88
2022-10-01T07:10:38.034Z,6.28
2022-10-01T07:13:16.496Z,6.18
2022-10-01T07:15:42.947Z,5.65
2022-10-01T07:18:10.093Z,6.97
2022-10-01T07:20:39.673Z,7.22
2022-10-01T07:23:08.588Z,7.93
2022-10-01T07:25:35.038Z,6.32
2022-10-01T07:28:04.532Z,8.13
2022-10-01T07:30:31.819Z,6.97
2022-10-01T07:32:58.566Z,6.30
2022-10-01T07:35:26.126Z,6.75
2022-10-01T07:37:54.924Z,6.78
2022-10-01T07:40:21.683Z,5.28
2022-10-01T07:42:55.672Z,4.95
2022-10-01T07:45:23.034Z,4.70
2022-10-01T07:47:54.244Z,5.07
2022-10-01T07:50:20.884Z,5.50
2022-10-01T07:52:51.681Z,4.68
2022-10-01T07:55:18.568Z,4.30
2022-10-01T07:57:53.037Z,4.25
2022-10-01T08:00:19.981Z,4.55
2022-10-01T08:02:47.785Z,4.15
2022-10-01T08:05:20.286Z,4.53
2022-10-01T08:07:47.428Z,3.60
2022-10-01T08:10:15.173Z,4.65
2022-10-01T08:12:44.402Z,4.35
2022-10-01T08:15:12.829Z,3.90
2022-10-01T08:17:39.426Z,3.95
2022-10-01T08:20:07.798Z,4.30
2022-10-01T08:22:36.549Z,3.97
2022-10-01T08:25:05.866Z,4.03
2022-10-01T08:27:32.284Z,2.88
2022-10-01T08:29:58.727Z,3.67
2022-10-01T08:32:27.377Z,3.88
2022-10-01T08:34:56.748Z,3.13
2022-10-01T08:37:27.141Z,3.00
2022-10-01T08:39:54.568Z,3.28
2022-10-01T08:42:42.264Z,3.20
2022-10-01T08:45:14.950Z,2.97
2022-10-01T08:47:45.780Z,3.35
2022-10-01T08:50:19.376Z,3.13
2022-10-01T08:52:55.657Z,2.80
2022-10-01T08:55:24.772Z,3.15
2022-10-01T08:58:00.668Z,2.70
2022-10-01T09:03:04.018Z,2.92
2022-10-01T09:05:38.363Z,2.72
2022-10-01T09:08:46.580Z,2.80
2022-10-01T09:11:36.959Z,2.67
2022-10-01T09:14:28.387Z,2.78
2022-10-01T09:17:05.432Z,2.25
2022-10-01T09:19:57.476Z,2.40
2022-10-01T09:23:02.933Z,2.42
2022-10-01T09:25:29.936Z,3.08
2022-10-01T09:28:15.800Z,2.63
2022-10-01T09:30:51.190Z,2.33
2022-10-01T09:33:20.290Z,2.53
2022-10-01T09:36:07.791Z,2.60
2022-10-01T09:38:38.627Z,2.45
2022-10-01T09:41:10.769Z,1.92
2022-10-01T09:43:42.513Z,3.05
2022-10-01T09:46:13.470Z,2.90
2022-10-01T09:48:59.356Z,2.28
2022-10-01T09:51:33.989Z,2.92
2022-10-01T09:54:09.302Z,2.35
2022-10-01T09:56:48.039Z,2.47
2022-10-01T09:59:19.633Z,2.60
2022-10-01T10:01:50.352Z,2.40
2022-10-01T10:04:23.536Z,2.60
2022-10-01T10:07:00.211Z,2.53
2022-10-01T10:09:30.634Z,1.90
2022-10-01T10:11:58.806Z,2.70
2022-10-01T10:14:49.039Z,2.80
2022-10-01T10:17:22.460Z,2.17
2022-10-01T10:19:51.805Z,2.53
2022-10-01T10:22:26.505Z,2.45
2022-10-01T10:24:54.302Z,2.97
2022-10-01T10:27:26.659Z,2.45
2022-10-01T10:30:16.261Z,2.22
2022-10-01T10:32:43.886Z,2.90
2022-10-01T10:35:13.674Z,2.30
2022-10-01T10:37:47.321Z,2.45
2022-10-01T10:40:20.247Z,2.38
2022-10-01T10:42:48.900Z,2.45
2022-10-01T10:45:17.645Z,2.78
2022-10-01T10:47:45.835Z,2.28
2022-10-01T10:50:29.803Z,2.63
2022-10-01T10:52:57.020Z,3.00
2022-10-01T10:55:25.158Z,2.00
2022-10-01T10:57:57.268Z,2.50
2022-10-01T11:00:25.882Z,2.75
2022-10-01T11:02:56.807Z,2.17
2022-10-01T11:05:25.973Z,2.25
2022-10-01T11:07:58.526Z,2.15
2022-10-01T11:10:38.321Z,2.00
2022-10-01T11:13:19.690Z,2.40
2022-10-01T11:15:58.423Z,2.35
2022-10-01T11:19:12.853Z,2.40
2022-10-01T11:21:46.705Z,2.35
2022-10-01T11:24:47.353Z,2.40
2022-10-01T11:28:10.626Z,2.10
2022-10-01T11:31:01.857Z,2.22
2022-10-01T11:33:38.713Z,2.22
2022-10-01T11:36:10.734Z,2.60
2022-10-01T11:38:46.796Z,1.77
2022-10-01T11:41:18.974Z,2.10
2022-10-01T11:43:56.381Z,2.03
2022-10-01T11:46:29.429Z,2.92
2022-10-01T11:49:18.869Z,2.28
2022-10-01T11:51:50.027Z,2.10
2022-10-01T11:54:20.928Z,2.20
2022-10-01T11:57:11.954Z,2.40
2022-10-01T11:59:55.518Z,1.80
2022-10-01T12:02:49.888Z,2.47
2022-10-01T12:07:49.478Z,1.80
2022-10-01T12:10:38.753Z,1.83
2022-10-01T12:13:24.000Z,2.10
2022-10-01T12:15:58.019Z,1.92
2022-10-01T12:18:27.375Z,1.77
2022-10-01T12:20:56.214Z,2.55
2022-10-01T12:23:27.294Z,2.42
2022-10-01T12:26:22.165Z,2.28
2022-10-01T12:28:53.596Z,2.45
2022-10-01T12:31:24.872Z,2.63
2022-10-01T12:34:16.322Z,2.53
2022-10-01T12:36:55.768Z,2.60
2022-10-01T12:39:51.428Z,2.13
2022-10-01T12:42:39.636Z,2.50
2022-10-01T12:47:58.509Z,2.20
2022-10-01T12:50:36.636Z,2.42
2022-10-01T12:53:35.461Z,2.30
2022-10-01T12:56:14.016Z,2.95
2022-10-01T12:58:59.480Z,2.15
2022-10-01T13:01:29.592Z,2.13
2022-10-01T13:04:28.032Z,2.67
2022-10-01T13:07:16.091Z,1.98
2022-10-01T13:09:52.171Z,3.05
2022-10-01T13:12:35.719Z,2.83
2022-10-01T13:15:03.109Z,2.08
2022-10-01T13:17:43.521Z,3.00
2022-10-01T13:20:22.131Z,2.05
2022-10-01T13:22:48.511Z,2.67
2022-10-01T13:25:26.652Z,2.90
2022-10-01T13:28:02.038Z,2.10
2022-10-01T13:30:45.144Z,1.85
2022-10-01T13:33:28.833Z,1.92
2022-10-01T13:35:58.744Z,2.00
2022-10-01T13:38:40.158Z,2.70
2022-10-01T13:41:17.068Z,2.25
2022-10-01T13:43:58.186Z,2.53
2022-10-01T13:46:33.355Z,2.25
2022-10-01T13:49:21.540Z,2.88
2022-10-01T13:51:47.944Z,2.90
2022-10-01T13:54:24.213Z,2.22
2022-10-01T13:56:50.580Z,2.35
2022-10-01T13:59:35.582Z,2.25
2022-10-01T14:02:03.099Z,1.90
2022-10-01T14:04:34.271Z,2.63
2022-10-01T14:07:14.328Z,2.20
2022-10-01T14:09:44.995Z,2.03
2022-10-01T14:12:37.752Z,2.58
2022-10-01T14:15:42.684Z,2.40
2022-10-01T14:18:18.653Z,2.40
2022-10-01T14:21:16.307Z,2.65
2022-10-01T14:24:00.908Z,3.35
2022-10-01T14:26:33.161Z,3.55
2022-10-01T14:29:39.342Z,3.22
2022-10-01T14:32:20.878Z,3.67
2022-10-01T14:35:26.029Z,4.78
2022-10-01T14:37:59.430Z,4.18
2022-10-01T14:40:26.488Z,3.28
2022-10-01T14:42:59.194Z,2.45
2022-10-01T14:45:25.629Z,2.97
2022-10-01T14:48:06.327Z,4.20
2022-10-01T14:50:34.265Z,3.13
2022-10-01T14:53:01.470Z,2.70
2022-10-01T14:55:27.977Z,2.70
2022-10-01T14:57:55.667Z,2.63
2022-10-01T15:00:23.209Z,2.97
2022-10-01T15:02:50.651Z,3.30
2022-10-01T15:05:37.387Z,2.65
2022-10-01T15:08:23.366Z,2.90
2022-10-01T15:11:37.443Z,3.10
2022-10-01T15:14:08.294Z,2.70
2022-10-01T15:16:35.202Z,2.67
2022-10-01T15:19:06.748Z,2.58
2022-10-01T15:21:47.621Z,2.38
2022-10-01T15:24:41.154Z,2.55
2022-10-01T15:27:13.609Z,2.17
2022-10-01T15:29:43.695Z,2.60
2022-10-01T15:32:15.145Z,2.80
2022-10-01T15:34:47.778Z,2.60
2022-10-01T15:37:33.711Z,2.33
2022-10-01T15:40:01.201Z,2.30
2022-10-01T15:42:31.137Z,2.42
2022-10-01T15:45:06.689Z,2.42
2022-10-01T15:47:37.524Z,2.00
2022-10-01T15:50:08.820Z,2.25
2022-10-01T15:52:50.796Z,2.65
2022-10-01T15:55:37.444Z,2.65
2022-10-01T15:58:15.110Z,2.33
2022-10-01T16:00:43.844Z,2.70
2022-10-01T16:03:19.586Z,2.28
2022-10-01T16:08:21.345Z,2.92
2022-10-01T16:10:49.170Z,2.22
2022-10-01T16:13:34.051Z,2.60
2022-10-01T16:16:12.885Z,2.35
2022-10-01T16:18:43.099Z,3.00
2022-10-01T16:21:11.020Z,3.13
2022-10-01T16:23:44.032Z,2.40
2022-10-01T16:26:34.263Z,2.47
2022-10-01T16:29:24.086Z,2.28
2022-10-01T16:31:51.134Z,2.40
2022-10-01T16:34:19.404Z,3.60
2022-10-01T16:36:46.332Z,2.38
2022-10-01T16:39:15.734Z,2.78
2022-10-01T16:41:44.671Z,2.75
2022-10-01T16:44:15.714Z,3.03
2022-10-01T16:47:10.491Z,2.55
2022-10-01T16:49:41.819Z,2.50
2022-10-01T16:52:12.297Z,2.40
2022-10-01T16:54:39.264Z,2.20
2022-10-01T16:57:05.671Z,2.33
2022-10-01T16:59:33.684Z,3.05
2022-10-01T17:02:02.118Z,3.28
2022-10-01T17:04:34.065Z,2.70
2022-10-01T17:07:00.695Z,2.83
2022-10-01T17:09:27.085Z,3.50
2022-10-01T17:11:53.885Z,1.98
2022-10-01T17:14:21.229Z,2.67
2022-10-01T17:16:48.512Z,3.10
2022-10-01T17:19:15.023Z,4.15
2022-10-01T17:21:41.878Z,3.63
2022-10-01T17:24:10.803Z,3.10
2022-10-01T17:26:41.625Z,3.53
2022-10-01T17:29:09.453Z,3.33
2022-10-01T17:31:37.635Z,3.42
2022-10-01T17:34:04.785Z,4.93
2022-10-01T17:36:31.744Z,4.88
2022-10-01T17:38:58.718Z,4.07
2022-10-01T17:41:25.355Z,5.28
2022-10-01T17:43:51.749Z,4.95
2022-10-01T17:46:18.582Z,3.97
2022-10-01T17:48:48.562Z,4.20
2022-10-01T17:51:15.686Z,6.18
2022-10-01T17:53:42.916Z,5.47
2022-10-01T17:56:13.168Z,5.68
2022-10-01T17:58:45.230Z,5.88
2022-10-01T18:01:19.489Z,5.15
2022-10-01T18:03:46.100Z,4.97
2022-10-01T18:06:15.112Z,4.35
2022-10-01T18:08:54.667Z,4.22
2022-10-01T18:11:22.883Z,4.22
2022-10-01T18:13:50.762Z,3.78
2022-10-01T18:16:19.186Z,4.15
2022-10-01T18:19:51.786Z,4.03
2022-10-01T18:21:32.794Z,3.70
2022-10-01T18:24:03.995Z,4.30
2022-10-01T18:26:31.161Z,4.60
2022-10-01T18:28:57.520Z,5.82
2022-10-01T18:31:28.385Z,5.38
2022-10-01T18:33:57.548Z,5.32
2022-10-01T18:36:51.668Z,5.10
2022-10-01T18:39:28.966Z,4.50
2022-10-01T18:41:56.475Z,4.10
2022-10-01T18:44:23.241Z,3.67
2022-10-01T18:46:55.156Z,3.80
2022-10-01T18:49:51.545Z,5.00
2022-10-01T18:52:27.583Z,4.10
2022-10-01T18:55:25.337Z,4.57
2022-10-01T18:58:11.061Z,4.47
2022-10-01T19:00:52.330Z,4.60
2022-10-01T19:03:35.215Z,3.90
2022-10-01T19:06:28.170Z,4.00
2022-10-01T19:09:08.327Z,3.85
2022-10-01T19:11:54.145Z,3.50
2022-10-01T19:14:45.016Z,4.28
2022-10-01T19:17:31.316Z,4.55
2022-10-01T19:20:29.997Z,5.00
2022-10-01T19:23:11.240Z,3.53
2022-10-01T19:25:49.637Z,3.47
2022-10-01T19:28:39.732Z,5.85
2022-10-01T19:31:20.863Z,6.25
2022-10-01T19:33:51.684Z,4.85
2022-10-01T19:36:29.525Z,3.67
2022-10-01T19:39:01.096Z,3.97
2022-10-01T19:44:04.762Z,3.90
2022-10-01T19:46:36.075Z,4.03
2022-10-01T19:49:08.847Z,4.18
2022-10-01T19:51:40.038Z,3.80
2022-10-01T19:54:13.522Z,3.97
2022-10-01T19:56:40.633Z,3.72
2022-10-01T19:59:11.190Z,3.67
2022-10-01T20:01:40.894Z,3.88
2022-10-01T20:06:44.423Z,3.22
2022-10-01T20:09:18.649Z,3.58
2022-10-01T20:12:30.884Z,3.10
2022-10-01T20:15:09.783Z,3.83
2022-10-01T20:18:04.053Z,3.72
2022-10-01T20:21:02.929Z,3.55
2022-10-01T20:23:33.229Z,2.63
2022-10-01T20:26:18.756Z,2.88
2022-10-01T20:29:14.037Z,2.70
2022-10-01T20:32:14.464Z,2.72
2022-10-01T20:35:00.460Z,2.83
2022-10-01T20:37:34.794Z,2.60
2022-10-01T20:40:10.466Z,4.07
2022-10-01T20:42:40.210Z,3.05
2022-10-01T20:45:14.865Z,3.40
2022-10-01T20:47:49.174Z,2.95
2022-10-01T20:50:32.346Z,3.05
2022-10-01T20:53:22.405Z,2.95
2022-10-01T20:55:52.774Z,3.05
2022-10-01T20:58:29.829Z,3.15
2022-10-01T21:01:01.875Z,3.40
2022-10-01T21:03:37.642Z,3.05
2022-10-01T21:06:05.451Z,3.35
2022-10-01T21:08:44.649Z,2.95
2022-10-01T21:11:22.423Z,2.90
2022-10-01T21:14:00.801Z,3.33
2022-10-01T21:16:57.871Z,3.15
2022-10-01T21:19:39.466Z,3.33
2022-10-01T21:22:21.907Z,3.13
2022-10-01T21:24:56.692Z,3.00
2022-10-01T21:28:02.097Z,3.35
2022-10-01T21:30:41.657Z,2.72
2022-10-01T21:33:53.241Z,3.20
2022-10-01T21:36:32.899Z,2.92
2022-10-01T21:39:27.477Z,2.88
2022-10-01T21:42:17.065Z,2.70
2022-10-01T21:45:02.205Z,3.38
2022-10-01T21:47:28.475Z,3.45
2022-10-01T21:50:19.634Z,2.95
2022-10-01T21:53:06.825Z,2.53
2022-10-01T21:55:55.610Z,2.75
2022-10-01T21:58:36.220Z,3.42
2022-10-01T22:01:15.927Z,3.15
2022-10-01T22:04:08.640Z,3.30
2022-10-01T22:06:59.191Z,3.10
2022-10-01T22:10:04.449Z,3.08
2022-10-01T22:12:33.483Z,3.40
2022-10-01T22:15:00.798Z,3.15
2022-10-01T22:17:33.124Z,3.50
2022-10-01T22:20:02.234Z,3.67
2022-10-01T22:22:30.996Z,3.78
2022-10-01T22:24:59.488Z,3.60
2022-10-01T22:27:32.074Z,4.25
2022-10-01T22:30:24.282Z,3.30
2022-10-01T22:37:02.081Z,4.32
2022-10-01T22:40:13.795Z,3.50
2022-10-01T22:43:04.580Z,3.63
2022-10-01T22:49:49.431Z,3.90
2022-10-01T22:52:40.099Z,3.08
2022-10-01T22:55:24.592Z,3.22
2022-10-01T22:57:51.273Z,3.75
2022-10-01T23:04:06.665Z,3.10
2022-10-01T23:07:12.619Z,2.60
2022-10-01T23:13:47.522Z,2.83
2022-10-01T23:16:38.308Z,2.88
2022-10-01T23:19:55.057Z,2.80
2022-10-01T23:22:46.444Z,2.53
2022-10-01T23:25:24.538Z,3.38
2022-10-01T23:28:06.226Z,3.28
2022-10-01T23:30:51.740Z,3.47
2022-10-01T23:33:56.630Z,2.60
2022-10-01T23:36:34.236Z,2.63
2022-10-01T23:39:28.919Z,2.58
2022-10-01T23:42:05.608Z,2.47
2022-10-01T23:44:55.102Z,2.10
2022-10-01T23:47:58.208Z,5.00
2022-10-01T23:50:35.463Z,2.50
2022-10-01T23:53:13.670Z,2.97
2022-10-01T23:56:30.123Z,2.55
2022-10-01T23:59:18.998Z,2.60
